Aérodrome :
LOGIN :

S'inscrire | Disclaimer

   EN    FR    IT 

 










Légende :    VFR   VFR Marginal   IFR   IFR Intensif   IFR Très Intensif
Visi : 
Plafond : 
>= 8 km
>= 3000ft
5 à 8 km
1000 à 3000 ft
1500m à 5 km
500 à 1000 ft
800 à 1500m
200 à 500 ft
< 800m
< 200 ft
Symboles :   Orages  Brouillard  Fortes neiges  Fortes précipitations  Vent > 20 kt
SIGMETs :   Divers  Orages  Givrage  Turbulence  Onde Orograph.  Cendres Volcan.







- Altitude de l'aérodrome : 784 ft
- Code IATA : TZL


LQTZ - Tuzla

DERNIER METAR :
  • 181230Z 08007KT 9999 BKN035 15/08 Q1025

METARs EXPIRÉS :
  • 181200Z 06005KT 010V110 9999 BKN035 16/09 Q1025
  • 181130Z VRB02KT 9999 BKN035 15/08 Q1025
  • 181100Z VRB02KT 9999 BKN035 15/10 Q1025
  • 181030Z VRB02KT 9999 BKN035 14/09 Q1025
  • 181000Z VRB03KT 9999 BKN035 13/09 Q1025

TAF TAF LQTZ
Valide du 18 à 12h jusqu'au 19 à 12h UTC


181100Z 1812/1912 VRB02KT 9999 SCT040 TX18/1912Z TN06/1904Z
PROB40
TEMPO 1812/1816 06010KT 5000 -SHRA FEW030TCU BKN040
Pas de NOTAMs connus pour ce terrain.



MET'MAP, la Météo Aéronautique d'un coup d'oeil ! - Copyright ORBIFLY Décembre 2007 - Disclaimer

ORBIFLY MET'MAP TEAM :

Programmation & Développement : Alexandra Zaïnal
Conception & Développement : Baudouin d'Aumeries
Co-Programmation & Développement : Marc-Olivier Méhu
Soutien technique & logistique : Manuel Goepfert

Contact : metmap@orbifly.com




SOURCES & CREDITS :

   NOAA